createdAt,value
2019-05-05T00:00:44.632Z,1014.25
2019-05-05T00:01:45.089Z,1014.23
2019-05-05T00:02:44.815Z,1014.24
2019-05-05T00:03:44.534Z,1014.19
2019-05-05T00:04:45.328Z,1014.20
2019-05-05T00:05:44.419Z,1014.23
2019-05-05T00:06:44.535Z,1014.21
2019-05-05T00:07:44.829Z,1014.20
2019-05-05T00:08:45.470Z,1014.21
2019-05-05T00:09:44.923Z,1014.20
2019-05-05T00:10:45.154Z,1014.19
2019-05-05T00:11:44.452Z,1014.19
2019-05-05T00:12:44.832Z,1014.19
2019-05-05T00:13:44.755Z,1014.18
2019-05-05T00:14:44.241Z,1014.17
2019-05-05T00:15:44.909Z,1014.20
2019-05-05T00:16:44.488Z,1014.21
2019-05-05T00:17:44.864Z,1014.24
2019-05-05T00:18:44.736Z,1014.23
2019-05-05T00:19:42.898Z,1014.25
2019-05-05T00:20:44.652Z,1014.25
2019-05-05T00:21:44.580Z,1014.21
2019-05-05T00:22:42.668Z,1014.23
2019-05-05T00:23:44.979Z,1014.29
2019-05-05T00:24:44.408Z,1014.25
2019-05-05T00:25:44.647Z,1014.28
2019-05-05T00:26:42.550Z,1014.31
2019-05-05T00:27:42.647Z,1014.32
2019-05-05T00:28:44.623Z,1014.33
2019-05-05T00:29:42.458Z,1014.32
2019-05-05T00:30:44.717Z,1014.36
2019-05-05T00:31:42.389Z,1014.33
2019-05-05T00:32:44.260Z,1014.33
2019-05-05T00:33:42.339Z,1014.32
2019-05-05T00:34:44.305Z,1014.35
2019-05-05T00:35:42.267Z,1014.35
2019-05-05T00:36:44.475Z,1014.36
2019-05-05T00:37:42.218Z,1014.35
2019-05-05T00:38:44.324Z,1014.41
2019-05-05T00:39:42.319Z,1014.40
2019-05-05T00:40:44.189Z,1014.41
2019-05-05T00:41:42.228Z,1014.39
2019-05-05T00:42:42.057Z,1014.42
2019-05-05T00:43:42.151Z,1014.40
2019-05-05T00:44:41.998Z,1014.43
2019-05-05T00:45:41.980Z,1014.42
2019-05-05T00:46:42.069Z,1014.44
2019-05-05T00:47:41.908Z,1014.45
2019-05-05T00:48:41.977Z,1014.46
2019-05-05T00:49:46.353Z,1014.41
2019-05-05T00:50:41.820Z,1014.48
2019-05-05T00:51:44.221Z,1014.48
2019-05-05T00:52:41.761Z,1014.49
2019-05-05T00:53:41.808Z,1014.55
2019-05-05T00:54:41.697Z,1014.54
2019-05-05T00:55:41.669Z,1014.51
2019-05-05T00:56:41.639Z,1014.49
2019-05-05T00:57:41.726Z,1014.49
2019-05-05T00:58:41.567Z,1014.49
2019-05-05T00:59:41.655Z,1014.45
2019-05-05T01:00:41.514Z,1014.48
2019-05-05T01:01:41.557Z,1014.46
2019-05-05T01:02:41.461Z,1014.48
2019-05-05T01:03:41.468Z,1014.54
2019-05-05T01:04:41.387Z,1014.50
2019-05-05T01:05:41.489Z,1014.50
2019-05-05T01:06:41.329Z,1014.52
2019-05-05T01:07:41.401Z,1014.52
2019-05-05T01:08:41.268Z,1014.54
2019-05-05T01:09:41.308Z,1014.54
2019-05-05T01:10:41.207Z,1014.53
2019-05-05T01:11:41.189Z,1014.56
2019-05-05T01:12:41.148Z,1014.55
2019-05-05T01:13:41.245Z,1014.57
2019-05-05T01:14:41.099Z,1014.57
2019-05-05T01:15:41.159Z,1014.56
2019-05-05T01:16:41.023Z,1014.60
2019-05-05T01:17:41.059Z,1014.59
2019-05-05T01:18:40.958Z,1014.58
2019-05-05T01:19:41.069Z,1014.56
2019-05-05T01:20:40.898Z,1014.56
2019-05-05T01:21:40.979Z,1014.62
2019-05-05T01:22:40.839Z,1014.60
2019-05-05T01:23:40.913Z,1014.56
2019-05-05T01:24:40.781Z,1014.59
2019-05-05T01:25:40.809Z,1014.64
2019-05-05T01:26:40.720Z,1014.64
2019-05-05T01:27:40.689Z,1014.61
2019-05-05T01:28:40.660Z,1014.63
2019-05-05T01:29:40.729Z,1014.61
2019-05-05T01:30:40.605Z,1014.63
2019-05-05T01:31:40.639Z,1014.61
2019-05-05T01:32:40.527Z,1014.56
2019-05-05T01:33:40.660Z,1014.56
2019-05-05T01:34:40.481Z,1014.58
2019-05-05T01:35:40.571Z,1014.57
2019-05-05T01:36:40.409Z,1014.59
2019-05-05T01:37:40.478Z,1014.58
2019-05-05T01:38:40.355Z,1014.59
2019-05-05T01:39:40.388Z,1014.58
2019-05-05T01:40:40.288Z,1014.61
2019-05-05T01:41:40.408Z,1014.57
2019-05-05T01:42:40.229Z,1014.59
2019-05-05T01:43:40.201Z,1014.57
2019-05-05T01:44:40.335Z,1014.61
2019-05-05T01:45:40.139Z,1014.59
2019-05-05T01:46:40.239Z,1014.64
2019-05-05T01:47:40.090Z,1014.61
2019-05-05T01:48:40.049Z,1014.62
2019-05-05T01:49:40.019Z,1014.62
2019-05-05T01:50:40.058Z,1014.63
2019-05-05T01:51:39.947Z,1014.64
2019-05-05T01:52:40.088Z,1014.62
2019-05-05T01:53:39.890Z,1014.67
2019-05-05T01:54:39.989Z,1014.63
2019-05-05T01:55:39.825Z,1014.64
2019-05-05T01:56:39.898Z,1014.61
2019-05-05T01:57:39.767Z,1014.64
2019-05-05T01:58:39.919Z,1014.63
2019-05-05T01:59:39.708Z,1014.63
2019-05-05T02:00:39.839Z,1014.67
2019-05-05T02:01:39.658Z,1014.62
2019-05-05T02:02:39.750Z,1014.69
2019-05-05T02:03:39.588Z,1014.66
2019-05-05T02:04:39.571Z,1014.70
2019-05-05T02:05:39.517Z,1014.66
2019-05-05T02:06:39.670Z,1014.63
2019-05-05T02:07:39.457Z,1014.67
2019-05-05T02:08:39.580Z,1014.72
2019-05-05T02:09:39.399Z,1014.68
2019-05-05T02:10:39.491Z,1014.66
2019-05-05T02:11:39.339Z,1014.63
2019-05-05T02:12:39.497Z,1014.69
2019-05-05T02:13:39.277Z,1014.68
2019-05-05T02:14:39.419Z,1014.73
2019-05-05T02:15:39.229Z,1014.67
2019-05-05T02:16:39.328Z,1014.72
2019-05-05T02:17:39.151Z,1014.65
2019-05-05T02:18:39.236Z,1014.66
2019-05-05T02:19:39.098Z,1014.64
2019-05-05T02:20:39.058Z,1014.64
2019-05-05T02:21:39.030Z,1014.67
2019-05-05T02:22:39.180Z,1014.66
2019-05-05T02:23:38.969Z,1014.64
2019-05-05T02:24:39.077Z,1014.60
2019-05-05T02:25:38.906Z,1014.64
2019-05-05T02:26:38.986Z,1014.59
2019-05-05T02:27:38.847Z,1014.66
2019-05-05T02:28:39.009Z,1014.62
2019-05-05T02:29:38.791Z,1014.65
2019-05-05T02:30:38.810Z,1014.67
2019-05-05T02:31:38.730Z,1014.68
2019-05-05T02:32:38.829Z,1014.61
2019-05-05T02:33:38.661Z,1014.71
2019-05-05T02:34:38.839Z,1014.66
2019-05-05T02:35:38.606Z,1014.68
2019-05-05T02:36:38.579Z,1014.67
2019-05-05T02:37:38.538Z,1014.69
2019-05-05T02:38:38.666Z,1014.70
2019-05-05T02:39:45.023Z,1014.71
2019-05-05T02:40:38.457Z,1014.71
2019-05-05T02:41:38.416Z,1014.72
2019-05-05T02:42:38.393Z,1014.72
2019-05-05T02:43:38.385Z,1014.74
2019-05-05T02:44:38.319Z,1014.71
2019-05-05T02:45:38.407Z,1014.74
2019-05-05T02:46:38.261Z,1014.73
2019-05-05T02:47:38.317Z,1014.73
2019-05-05T02:48:38.198Z,1014.71
2019-05-05T02:49:38.226Z,1014.75
2019-05-05T02:50:51.115Z,1014.76
2019-05-05T02:51:38.113Z,1014.75
2019-05-05T02:52:38.089Z,1014.76
2019-05-05T02:53:38.157Z,1014.78
2019-05-05T02:54:38.017Z,1014.78
2019-05-05T02:55:38.078Z,1014.79
2019-05-05T02:56:37.957Z,1014.79
2019-05-05T02:57:37.927Z,1014.76
2019-05-05T02:58:37.887Z,1014.77
2019-05-05T02:59:37.895Z,1014.77
2019-05-05T03:00:37.836Z,1014.78
2019-05-05T03:01:37.910Z,1014.85
2019-05-05T03:02:37.772Z,1014.84
2019-05-05T03:03:37.819Z,1014.84
2019-05-05T03:04:37.707Z,1014.83
2019-05-05T03:05:37.749Z,1014.85
2019-05-05T03:06:37.648Z,1014.82
2019-05-05T03:07:37.745Z,1014.85
2019-05-05T03:08:37.579Z,1014.84
2019-05-05T03:09:37.659Z,1014.84
2019-05-05T03:10:37.527Z,1014.85
2019-05-05T03:11:37.567Z,1014.82
2019-05-05T03:12:37.457Z,1014.87
2019-05-05T03:13:37.429Z,1014.84
2019-05-05T03:14:37.397Z,1014.85
2019-05-05T03:15:37.498Z,1014.82
2019-05-05T03:16:37.348Z,1014.82
2019-05-05T03:17:37.407Z,1014.81
2019-05-05T03:18:37.268Z,1014.81
2019-05-05T03:19:37.338Z,1014.80
2019-05-05T03:20:37.217Z,1014.81
2019-05-05T03:21:37.237Z,1014.85
2019-05-05T03:22:37.146Z,1014.83
2019-05-05T03:23:37.247Z,1014.82
2019-05-05T03:24:37.087Z,1014.78
2019-05-05T03:25:37.170Z,1014.73
2019-05-05T03:26:37.025Z,1014.76
2019-05-05T03:27:37.070Z,1014.76
2019-05-05T03:28:36.967Z,1014.75
2019-05-05T03:29:36.931Z,1014.73
2019-05-05T03:30:36.902Z,1014.76
2019-05-05T03:31:36.999Z,1014.77
2019-05-05T03:32:36.866Z,1014.81
2019-05-05T03:33:36.906Z,1014.78
2019-05-05T03:34:36.918Z,1014.86
2019-05-05T03:35:36.747Z,1014.82
2019-05-05T03:36:36.828Z,1014.86
2019-05-05T03:37:36.689Z,1014.85
2019-05-05T03:38:36.737Z,1014.94
2019-05-05T03:39:36.610Z,1014.86
2019-05-05T03:40:36.587Z,1014.86
2019-05-05T03:41:36.668Z,1014.87
2019-05-05T03:42:36.528Z,1014.88
2019-05-05T03:43:36.672Z,1014.83
2019-05-05T03:44:36.479Z,1014.88
2019-05-05T03:45:36.427Z,1014.90
2019-05-05T03:46:36.486Z,1014.88
2019-05-05T03:47:36.392Z,1014.92
2019-05-05T03:48:36.497Z,1014.93
2019-05-05T03:49:36.307Z,1014.91
2019-05-05T03:50:36.279Z,1014.87
2019-05-05T03:51:36.252Z,1014.92
2019-05-05T03:52:36.329Z,1014.97
2019-05-05T03:53:36.186Z,1014.90
2019-05-05T03:54:36.240Z,1014.97
2019-05-05T03:55:36.125Z,1014.96
2019-05-05T03:56:36.245Z,1014.93
2019-05-05T03:57:36.058Z,1014.98
2019-05-05T03:58:36.158Z,1014.97
2019-05-05T03:59:35.997Z,1014.98
2019-05-05T04:00:36.076Z,1014.98
2019-05-05T04:01:35.941Z,1015.05
2019-05-05T04:02:36.085Z,1014.99
2019-05-05T04:03:35.877Z,1014.99
2019-05-05T04:04:35.999Z,1015.01
2019-05-05T04:05:35.810Z,1015.01
2019-05-05T04:06:35.776Z,1014.98
2019-05-05T04:07:35.919Z,1014.98
2019-05-05T04:08:35.723Z,1015.02
2019-05-05T04:09:35.726Z,1014.96
2019-05-05T04:10:35.662Z,1014.95
2019-05-05T04:11:35.735Z,1014.99
2019-05-05T04:12:35.601Z,1015.00
2019-05-05T04:13:35.657Z,1014.99
2019-05-05T04:14:35.528Z,1015.00
2019-05-05T04:15:35.566Z,1015.03
2019-05-05T04:16:35.467Z,1015.06
2019-05-05T04:17:35.436Z,1015.08
2019-05-05T04:18:35.492Z,1015.09
2019-05-05T04:19:35.377Z,1015.13
2019-05-05T04:20:35.399Z,1015.17
2019-05-05T04:21:36.872Z,1015.24
2019-05-05T04:22:35.288Z,1015.22
2019-05-05T04:23:35.270Z,1015.16
2019-05-05T04:24:35.328Z,1015.20
2019-05-05T04:25:35.207Z,1015.25
2019-05-05T04:26:35.243Z,1015.25
2019-05-05T04:27:35.125Z,1015.23
2019-05-05T04:28:35.151Z,1015.23
2019-05-05T04:29:35.067Z,1015.26
2019-05-05T04:30:35.056Z,1015.20
2019-05-05T04:31:35.017Z,1015.16
2019-05-05T04:32:35.066Z,1015.20
2019-05-05T04:33:34.945Z,1015.19
2019-05-05T04:34:34.993Z,1015.17
2019-05-05T04:35:34.888Z,1015.15
2019-05-05T04:36:34.901Z,1015.16
2019-05-05T04:37:34.829Z,1015.15
2019-05-05T04:38:34.888Z,1015.20
2019-05-05T04:39:34.758Z,1015.20
2019-05-05T04:40:34.819Z,1015.22
2019-05-05T04:41:34.709Z,1015.25
2019-05-05T04:42:34.736Z,1015.28
2019-05-05T04:43:34.636Z,1015.28
2019-05-05T04:44:34.919Z,1015.29
2019-05-05T04:45:34.853Z,1015.28
2019-05-05T04:46:34.558Z,1015.29
2019-05-05T04:47:34.508Z,1015.32
2019-05-05T04:48:34.639Z,1015.32
2019-05-05T04:49:34.448Z,1015.29
2019-05-05T04:50:34.655Z,1015.35
2019-05-05T04:51:47.083Z,1015.30
2019-05-05T04:52:34.473Z,1015.32
2019-05-05T04:53:34.795Z,1015.30
2019-05-05T04:54:34.413Z,1015.34
2019-05-05T04:55:34.257Z,1015.35
2019-05-05T04:56:34.503Z,1015.35
2019-05-05T04:57:35.424Z,1015.35
2019-05-05T04:58:34.235Z,1015.36
2019-05-05T04:59:34.248Z,1015.37
2019-05-05T05:00:34.297Z,1015.36
2019-05-05T05:01:34.153Z,1015.36
2019-05-05T05:02:34.254Z,1015.37
2019-05-05T05:03:34.669Z,1015.34
2019-05-05T05:04:33.999Z,1015.35
2019-05-05T05:05:33.991Z,1015.33
2019-05-05T05:06:34.215Z,1015.38
2019-05-05T05:07:34.525Z,1015.41
2019-05-05T05:08:33.911Z,1015.42
2019-05-05T05:09:34.227Z,1015.48
2019-05-05T05:10:34.581Z,1015.59
2019-05-05T05:11:33.780Z,1015.57
2019-05-05T05:12:34.275Z,1015.57
2019-05-05T05:13:34.767Z,1015.59
2019-05-05T05:14:33.881Z,1015.58
2019-05-05T05:15:34.147Z,1015.56
2019-05-05T05:16:35.599Z,1015.56
2019-05-05T05:17:33.862Z,1015.61
2019-05-05T05:18:34.422Z,1015.66
2019-05-05T05:19:33.620Z,1015.62
2019-05-05T05:20:34.053Z,1015.65
2019-05-05T05:21:34.248Z,1015.64
2019-05-05T05:22:33.539Z,1015.65
2019-05-05T05:23:34.081Z,1015.65
2019-05-05T05:24:34.356Z,1015.73
2019-05-05T05:25:34.650Z,1015.69
2019-05-05T05:26:33.635Z,1015.74
2019-05-05T05:27:33.656Z,1015.75
2019-05-05T05:28:34.211Z,1015.74
2019-05-05T05:29:34.559Z,1015.74
2019-05-05T05:30:34.740Z,1015.76
2019-05-05T05:31:33.736Z,1015.80
2019-05-05T05:32:34.005Z,1015.78
2019-05-05T05:33:34.463Z,1015.81
2019-05-05T05:34:34.434Z,1015.83
2019-05-05T05:35:33.605Z,1015.84
2019-05-05T05:36:33.808Z,1015.84
2019-05-05T05:37:34.257Z,1015.84
2019-05-05T05:38:34.640Z,1015.89
2019-05-05T05:39:33.578Z,1015.87
2019-05-05T05:40:34.189Z,1015.91
2019-05-05T05:41:34.393Z,1015.88
2019-05-05T05:42:33.588Z,1015.90
2019-05-05T05:43:33.485Z,1015.90
2019-05-05T05:44:33.841Z,1015.95
2019-05-05T05:45:34.318Z,1015.94
2019-05-05T05:46:33.439Z,1015.96
2019-05-05T05:47:33.854Z,1016.01
2019-05-05T05:48:34.210Z,1016.03
2019-05-05T05:49:34.514Z,1016.03
2019-05-05T05:50:33.913Z,1016.05
2019-05-05T05:51:34.149Z,1016.04
2019-05-05T05:52:34.320Z,1016.04
2019-05-05T05:53:34.730Z,1016.07
2019-05-05T05:54:34.060Z,1016.10
2019-05-05T05:55:34.256Z,1016.10
2019-05-05T05:56:34.286Z,1016.08
2019-05-05T05:57:34.443Z,1016.13
2019-05-05T05:58:33.755Z,1016.13
2019-05-05T05:59:33.983Z,1016.16
2019-05-05T06:00:34.181Z,1016.13
2019-05-05T06:01:34.411Z,1016.14
2019-05-05T06:02:33.478Z,1016.14
2019-05-05T06:03:33.919Z,1016.14
2019-05-05T06:04:33.917Z,1016.21
2019-05-05T06:05:34.141Z,1016.22
2019-05-05T06:06:32.113Z,1016.25
2019-05-05T06:07:33.604Z,1016.22
2019-05-05T06:08:32.070Z,1016.25
2019-05-05T06:09:34.263Z,1016.27
2019-05-05T06:10:33.922Z,1016.27
2019-05-05T06:11:31.946Z,1016.24
2019-05-05T06:12:33.669Z,1016.27
2019-05-05T06:13:33.664Z,1016.32
2019-05-05T06:14:33.866Z,1016.34
2019-05-05T06:15:33.747Z,1016.40
2019-05-05T06:16:33.979Z,1016.36
2019-05-05T06:17:31.837Z,1016.44
2019-05-05T06:18:31.735Z,1016.45
2019-05-05T06:19:33.289Z,1016.47
2019-05-05T06:20:31.748Z,1016.48
2019-05-05T06:21:33.652Z,1016.49
2019-05-05T06:22:32.239Z,1016.52
2019-05-05T06:23:31.587Z,1016.51
2019-05-05T06:24:31.565Z,1016.51
2019-05-05T06:25:33.993Z,1016.52
2019-05-05T06:26:31.511Z,1016.50
2019-05-05T06:27:31.498Z,1016.50
2019-05-05T06:28:31.445Z,1016.45
2019-05-05T06:29:31.406Z,1016.47
2019-05-05T06:30:33.495Z,1016.43
2019-05-05T06:31:31.419Z,1016.44
2019-05-05T06:32:31.318Z,1016.50
2019-05-05T06:33:31.328Z,1016.47
2019-05-05T06:34:31.270Z,1016.46
2019-05-05T06:35:31.338Z,1016.49
2019-05-05T06:36:31.215Z,1016.47
2019-05-05T06:37:31.257Z,1016.48
2019-05-05T06:38:31.153Z,1016.51
2019-05-05T06:39:33.115Z,1016.48
2019-05-05T06:40:31.093Z,1016.49
2019-05-05T06:41:31.079Z,1016.48
2019-05-05T06:42:31.041Z,1016.52
2019-05-05T06:43:31.088Z,1016.49
2019-05-05T06:44:30.967Z,1016.51
2019-05-05T06:45:30.945Z,1016.55
2019-05-05T06:46:30.920Z,1016.54
2019-05-05T06:47:30.920Z,1016.54
2019-05-05T06:48:30.858Z,1016.54
2019-05-05T06:49:31.410Z,1016.55
2019-05-05T06:50:30.809Z,1016.54
2019-05-05T06:51:30.938Z,1016.52
2019-05-05T06:52:41.898Z,1016.58
2019-05-05T06:53:30.711Z,1016.55
2019-05-05T06:54:30.766Z,1016.59
2019-05-05T06:55:30.649Z,1016.59
2019-05-05T06:56:30.672Z,1016.61
2019-05-05T06:57:30.588Z,1016.63
2019-05-05T06:58:30.687Z,1016.64
2019-05-05T06:59:30.532Z,1016.66
2019-05-05T07:00:30.598Z,1016.62
2019-05-05T07:01:30.489Z,1016.68
2019-05-05T07:02:30.508Z,1016.65
2019-05-05T07:03:30.418Z,1016.63
2019-05-05T07:04:30.419Z,1016.63
2019-05-05T07:05:30.367Z,1016.66
2019-05-05T07:06:30.328Z,1016.66
2019-05-05T07:07:30.309Z,1016.65
2019-05-05T07:08:30.351Z,1016.67
2019-05-05T07:09:30.248Z,1016.63
2019-05-05T07:10:30.257Z,1016.65
2019-05-05T07:11:30.187Z,1016.71
2019-05-05T07:12:30.267Z,1016.67
2019-05-05T07:13:30.126Z,1016.75
2019-05-05T07:14:30.188Z,1016.72
2019-05-05T07:15:30.068Z,1016.71
2019-05-05T07:16:30.097Z,1016.72
2019-05-05T07:17:30.019Z,1016.72
2019-05-05T07:18:30.107Z,1016.67
2019-05-05T07:19:29.974Z,1016.68
2019-05-05T07:20:30.016Z,1016.71
2019-05-05T07:21:29.898Z,1016.74
2019-05-05T07:22:29.877Z,1016.75
2019-05-05T07:23:29.859Z,1016.76
2019-05-05T07:24:29.951Z,1016.73
2019-05-05T07:25:42.162Z,1016.76
2019-05-05T07:26:29.767Z,1016.69
2019-05-05T07:27:29.729Z,1016.67
2019-05-05T07:28:29.711Z,1016.71
2019-05-05T07:29:29.777Z,1016.66
2019-05-05T07:30:29.647Z,1016.72
2019-05-05T07:31:29.687Z,1016.73
2019-05-05T07:32:29.588Z,1016.72
2019-05-05T07:33:29.709Z,1016.70
2019-05-05T07:34:29.557Z,1016.68
2019-05-05T07:35:29.618Z,1016.67
2019-05-05T07:36:29.480Z,1016.64
2019-05-05T07:37:29.528Z,1016.70
2019-05-05T07:38:29.417Z,1016.67
2019-05-05T07:39:29.436Z,1016.65
2019-05-05T07:40:29.368Z,1016.63
2019-05-05T07:41:29.347Z,1016.62
2019-05-05T07:42:29.310Z,1016.63
2019-05-05T07:43:29.278Z,1016.64
2019-05-05T07:44:29.840Z,1016.63
2019-05-05T07:45:29.229Z,1016.66
2019-05-05T07:46:29.288Z,1016.61
2019-05-05T07:47:29.178Z,1016.60
2019-05-05T07:48:29.139Z,1016.65
2019-05-05T07:49:29.118Z,1016.66
2019-05-05T07:50:32.536Z,1016.66
2019-05-05T07:51:29.068Z,1016.65
2019-05-05T07:52:29.139Z,1016.65
2019-05-05T07:53:28.997Z,1016.68
2019-05-05T07:54:28.969Z,1016.68
2019-05-05T07:55:29.038Z,1016.74
2019-05-05T07:56:28.939Z,1016.69
2019-05-05T07:57:28.956Z,1016.72
2019-05-05T07:58:28.871Z,1016.65
2019-05-05T07:59:28.837Z,1016.70
2019-05-05T08:00:28.876Z,1016.73
2019-05-05T08:01:28.784Z,1016.69
2019-05-05T08:02:28.786Z,1016.73
2019-05-05T08:03:28.726Z,1016.71
2019-05-05T08:04:28.699Z,1016.70
2019-05-05T08:05:28.668Z,1016.75
2019-05-05T08:06:28.717Z,1016.68
2019-05-05T08:07:28.618Z,1016.79
2019-05-05T08:08:28.627Z,1016.80
2019-05-05T08:09:28.570Z,1016.82
2019-05-05T08:10:28.647Z,1016.83
2019-05-05T08:11:28.498Z,1016.81
2019-05-05T08:12:28.548Z,1016.82
2019-05-05T08:13:28.459Z,1016.89
2019-05-05T08:14:28.466Z,1016.83
2019-05-05T08:15:28.399Z,1016.75
2019-05-05T08:16:28.489Z,1016.84
2019-05-05T08:17:28.337Z,1016.83
2019-05-05T08:18:28.388Z,1016.84
2019-05-05T08:19:28.291Z,1016.90
2019-05-05T08:20:28.262Z,1016.87
2019-05-05T08:21:28.238Z,1016.87
2019-05-05T08:22:28.324Z,1016.86
2019-05-05T08:23:31.915Z,1016.88
2019-05-05T08:24:28.228Z,1016.90
2019-05-05T08:25:37.473Z,1016.88
2019-05-05T08:26:28.097Z,1016.88
2019-05-05T08:27:28.147Z,1016.92
2019-05-05T08:28:28.039Z,1016.94
2019-05-05T08:29:28.056Z,1017.00
2019-05-05T08:30:27.988Z,1016.92
2019-05-05T08:31:28.068Z,1016.99
2019-05-05T08:32:27.945Z,1017.02
2019-05-05T08:33:27.986Z,1016.98
2019-05-05T08:34:27.879Z,1016.98
2019-05-05T08:35:27.895Z,1017.03
2019-05-05T08:36:27.840Z,1017.01
2019-05-05T08:37:27.909Z,1017.04
2019-05-05T08:38:27.778Z,1017.06
2019-05-05T08:39:27.818Z,1017.03
2019-05-05T08:40:27.729Z,1017.04
2019-05-05T08:41:27.696Z,1016.98
2019-05-05T08:42:27.670Z,1017.03
2019-05-05T08:43:27.758Z,1017.06
2019-05-05T08:44:27.620Z,1017.03
2019-05-05T08:45:27.659Z,1017.02
2019-05-05T08:46:27.567Z,1017.10
2019-05-05T08:47:28.314Z,1017.05
2019-05-05T08:48:27.510Z,1017.07
2019-05-05T08:49:27.600Z,1017.11
2019-05-05T08:50:27.466Z,1017.08
2019-05-05T08:51:27.498Z,1017.10
2019-05-05T08:52:27.407Z,1017.09
2019-05-05T08:53:40.727Z,1017.08
2019-05-05T08:54:27.348Z,1017.10
2019-05-05T08:55:28.507Z,1017.11
2019-05-05T08:56:27.298Z,1017.10
2019-05-05T08:57:27.266Z,1017.08
2019-05-05T08:58:27.247Z,1017.10
2019-05-05T08:59:27.248Z,1017.06
2019-05-05T09:00:27.186Z,1017.04
2019-05-05T09:01:27.257Z,1017.06
2019-05-05T09:02:27.165Z,1017.08
2019-05-05T09:03:27.117Z,1017.03
2019-05-05T09:04:27.186Z,1017.07
2019-05-05T09:05:27.068Z,1017.04
2019-05-05T09:06:27.096Z,1017.02
2019-05-05T09:07:27.018Z,1017.05
2019-05-05T09:08:27.009Z,1017.04
2019-05-05T09:09:26.958Z,1017.07
2019-05-05T09:10:27.018Z,1017.06
2019-05-05T09:11:26.908Z,1017.10
2019-05-05T09:12:26.927Z,1017.10
2019-05-05T09:13:26.857Z,1017.13
2019-05-05T09:14:26.946Z,1017.14
2019-05-05T09:15:26.806Z,1017.15
2019-05-05T09:16:26.879Z,1017.10
2019-05-05T09:17:28.062Z,1017.11
2019-05-05T09:18:26.730Z,1017.08
2019-05-05T09:19:26.776Z,1017.10
2019-05-05T09:20:26.680Z,1017.08
2019-05-05T09:21:26.786Z,1017.13
2019-05-05T09:22:26.627Z,1017.12
2019-05-05T09:23:26.610Z,1017.15
2019-05-05T09:24:26.602Z,1017.17
2019-05-05T09:25:26.619Z,1017.19
2019-05-05T09:26:26.529Z,1017.16
2019-05-05T09:27:28.377Z,1017.17
2019-05-05T09:28:26.475Z,1017.13
2019-05-05T09:29:26.548Z,1017.14
2019-05-05T09:30:26.435Z,1017.13
2019-05-05T09:31:26.556Z,1017.12
2019-05-05T09:32:26.401Z,1017.12
2019-05-05T09:33:26.483Z,1017.09
2019-05-05T09:34:26.347Z,1017.11
2019-05-05T09:35:26.380Z,1017.08
2019-05-05T09:36:26.287Z,1017.03
2019-05-05T09:37:26.386Z,1017.05
2019-05-05T09:38:26.237Z,1017.03
2019-05-05T09:39:26.210Z,1017.08
2019-05-05T09:40:26.322Z,1017.01
2019-05-05T09:41:26.202Z,1017.07
2019-05-05T09:42:26.229Z,1017.10
2019-05-05T09:43:26.106Z,1017.11
2019-05-05T09:44:26.086Z,1017.12
2019-05-05T09:45:26.065Z,1017.08
2019-05-05T09:46:26.161Z,1017.16
2019-05-05T09:47:26.019Z,1017.20
2019-05-05T09:48:26.056Z,1017.19
2019-05-05T09:49:25.989Z,1017.16
2019-05-05T09:50:26.077Z,1017.19
2019-05-05T09:51:25.924Z,1017.21
2019-05-05T09:52:25.988Z,1017.20
2019-05-05T09:53:27.398Z,1017.26
2019-05-05T09:54:26.012Z,1017.25
2019-05-05T09:55:25.828Z,1017.31
2019-05-05T09:56:25.918Z,1017.36
2019-05-05T09:57:25.777Z,1017.40
2019-05-05T09:58:25.937Z,1017.42
2019-05-05T09:59:25.729Z,1017.47
2019-05-05T10:00:25.708Z,1017.48
2019-05-05T10:01:25.850Z,1017.42
2019-05-05T10:02:25.649Z,1017.43
2019-05-05T10:03:25.757Z,1017.42
2019-05-05T10:04:25.607Z,1017.43
2019-05-05T10:05:25.589Z,1017.45
2019-05-05T10:06:25.569Z,1017.49
2019-05-05T10:07:25.694Z,1017.51
2019-05-05T10:08:25.508Z,1017.51
2019-05-05T10:09:25.622Z,1017.50
2019-05-05T10:10:25.471Z,1017.54
2019-05-05T10:11:25.434Z,1017.54
2019-05-05T10:12:25.559Z,1017.54
2019-05-05T10:13:25.387Z,1017.49
2019-05-05T10:14:25.529Z,1017.47
2019-05-05T10:15:25.340Z,1017.53
2019-05-05T10:16:25.309Z,1017.53
2019-05-05T10:17:25.464Z,1017.50
2019-05-05T10:18:25.572Z,1017.48
2019-05-05T10:19:25.378Z,1017.48
2019-05-05T10:20:25.209Z,1017.49
2019-05-05T10:21:25.187Z,1017.45
2019-05-05T10:22:25.159Z,1017.45
2019-05-05T10:23:25.178Z,1017.43
2019-05-05T10:24:30.614Z,1017.41
2019-05-05T10:25:25.201Z,1017.36
2019-05-05T10:26:25.066Z,1017.39
2019-05-05T10:27:25.108Z,1017.39
2019-05-05T10:28:25.021Z,1017.35
2019-05-05T10:29:25.022Z,1017.35
2019-05-05T10:30:24.967Z,1017.34
2019-05-05T10:31:25.036Z,1017.39
2019-05-05T10:32:24.948Z,1017.34
2019-05-05T10:33:24.899Z,1017.33
2019-05-05T10:34:24.958Z,1017.35
2019-05-05T10:35:24.862Z,1017.25
2019-05-05T10:36:24.867Z,1017.34
2019-05-05T10:37:24.881Z,1017.31
2019-05-05T10:38:24.790Z,1017.30
2019-05-05T10:39:24.789Z,1017.35
2019-05-05T10:40:24.750Z,1017.31
2019-05-05T10:41:24.799Z,1017.37
2019-05-05T10:42:24.689Z,1017.38
2019-05-05T10:43:24.711Z,1017.32
2019-05-05T10:44:24.636Z,1017.35
2019-05-05T10:45:24.774Z,1017.43
2019-05-05T10:46:24.584Z,1017.48
2019-05-05T10:47:24.639Z,1017.43
2019-05-05T10:48:24.552Z,1017.43
2019-05-05T10:49:24.561Z,1017.39
2019-05-05T10:50:24.877Z,1017.29
2019-05-05T10:51:24.566Z,1017.32
2019-05-05T10:52:24.446Z,1017.32
2019-05-05T10:53:24.427Z,1017.35
2019-05-05T10:54:24.482Z,1017.36
2019-05-05T10:55:24.380Z,1017.35
2019-05-05T10:56:24.401Z,1017.35
2019-05-05T10:57:24.338Z,1017.38
2019-05-05T10:58:24.478Z,1017.39
2019-05-05T10:59:24.286Z,1017.43
2019-05-05T11:00:24.318Z,1017.43
2019-05-05T11:01:24.240Z,1017.36
2019-05-05T11:02:24.386Z,1017.37
2019-05-05T11:03:24.197Z,1017.38
2019-05-05T11:04:24.431Z,1017.43
2019-05-05T11:05:24.149Z,1017.43
2019-05-05T11:06:24.167Z,1017.41
2019-05-05T11:07:24.096Z,1017.42
2019-05-05T11:08:24.192Z,1017.37
2019-05-05T11:09:24.502Z,1017.35
2019-05-05T11:10:24.757Z,1017.39
2019-05-05T11:11:24.012Z,1017.38
2019-05-05T11:12:24.676Z,1017.36
2019-05-05T11:13:24.067Z,1017.39
2019-05-05T11:14:23.937Z,1017.34
2019-05-05T11:15:24.673Z,1017.36
2019-05-05T11:16:23.897Z,1017.32
2019-05-05T11:17:24.821Z,1017.40
2019-05-05T11:18:23.892Z,1017.34
2019-05-05T11:19:24.168Z,1017.38
2019-05-05T11:20:24.799Z,1017.40
2019-05-05T11:21:23.856Z,1017.41
2019-05-05T11:22:24.237Z,1017.39
2019-05-05T11:23:24.909Z,1017.43
2019-05-05T11:24:24.086Z,1017.46
2019-05-05T11:25:24.258Z,1017.46
2019-05-05T11:26:24.651Z,1017.39
2019-05-05T11:27:24.153Z,1017.41
2019-05-05T11:28:23.638Z,1017.41
2019-05-05T11:29:24.182Z,1017.35
2019-05-05T11:30:26.778Z,1017.43
2019-05-05T11:31:23.990Z,1017.46
2019-05-05T11:32:24.497Z,1017.39
2019-05-05T11:33:23.785Z,1017.43
2019-05-05T11:34:24.690Z,1017.32
2019-05-05T11:35:24.466Z,1017.35
2019-05-05T11:36:24.034Z,1017.32
2019-05-05T11:37:23.427Z,1017.33
2019-05-05T11:38:24.725Z,1017.35
2019-05-05T11:39:23.582Z,1017.40
2019-05-05T11:40:23.358Z,1017.33
2019-05-05T11:41:24.251Z,1017.41
2019-05-05T11:42:23.899Z,1017.41
2019-05-05T11:43:24.655Z,1017.39
2019-05-05T11:44:24.327Z,1017.41
2019-05-05T11:45:24.066Z,1017.47
2019-05-05T11:46:24.686Z,1017.47
2019-05-05T11:47:24.520Z,1017.45
2019-05-05T11:48:24.061Z,1017.41
2019-05-05T11:49:24.481Z,1017.40
2019-05-05T11:50:23.834Z,1017.45
2019-05-05T11:51:25.015Z,1017.56
2019-05-05T11:52:23.206Z,1017.47
2019-05-05T11:53:25.059Z,1017.54
2019-05-05T11:54:24.539Z,1017.41
2019-05-05T11:55:24.856Z,1017.46
2019-05-05T11:56:23.018Z,1017.43
2019-05-05T11:57:23.984Z,1017.42
2019-05-05T11:58:24.812Z,1017.39
2019-05-05T11:59:23.745Z,1017.40
2019-05-05T12:00:24.161Z,1017.40
2019-05-05T12:01:24.263Z,1017.46
2019-05-05T12:02:24.395Z,1017.41
2019-05-05T12:03:22.966Z,1017.41
2019-05-05T12:04:23.955Z,1017.35
2019-05-05T12:05:24.358Z,1017.44